Weather Outlook 21st November 2019 (12 noon)

Ahead of a low-level trough approaching the region, scattered showers are likely this evening.  Unstable conditions could increase across St. Vincent and the Grenadines (SVG) during Friday, with occasional showers as a tropical wave approaches the island chain and merges with a frontal boundary from the north-west bringing relatively cooler temperatures this weekend. 

Light to gentle (5 - 20 km/h) north-easterly breeze could become calm at times,

with gradual increase to moderate (up to 30km/h) breeze late Saturday.

Slight to moderate (1.0 - 2.0 m)) sea conditions with north-easterly swells across our islands could temporarily dip (1.0 -1.5 m) by Friday afternoon, increasing again late Sunday. Good visibility should continue until slight haze moves into the area Sunday night.

Aviation WX

[Source: ADDS]
METAR
TVSA 201200Z 08011KT 9999 SCT022 27/22 Q1015 NOSIG =
TVSA 201100Z 2012/2112 07010KT 9999 SCT018 PROB40 TEMPO 2100/2109 SHRA BKN015 SCT032
TAF
TVSA 201100Z 2012/2112 07010KT 9999 SCT018 PROB40 TEMPO 2100/2109 SHRA BKN015 SCT032 =
SR / SS: 10:31 / 21:59 UTC (Sunrise Sunset 2020-01-20)